Tonopah, Nevada Weather observations

Data are for observation ending at time listed.
 Day   Time    Ave.   Ave.  Ave.  Vector   Max.   Stn.    Total    Solar   Ave.  
  of    of     Air    Rel.  Wind   Wind    Wind   Baro.  Precip.   Rad.    Soil  
Year   Day     Temp.  Hum.  Speed  Dir.    Gust   Pres.                    Temp. 
2014   (PST)    F      %     mph   deg.    mph     mb.     in.     W/m2     F   
------------------------------------------------------------------------------
 273    7:50   56.4    49    2.9   142      4.6   812.6    0.00     367    53.8
 273    8:00   57.0    49    2.5    75      4.0   812.5    0.00     396    54.0
 273    8:10   57.7    48    2.2    58      3.9   812.5    0.00     431    54.2
 273    8:20   58.3    46    3.3    80      6.6   812.6    0.00     464    54.4
 273    8:30   58.3    46    3.3    54      6.1   812.7    0.00     492    54.6
 273    8:40   58.5    45    3.5    26      7.7   812.6    0.00     532    54.9
 273    8:50   57.5    48    4.3    19      7.2   812.7    0.00     558    55.2
 273    9:00   58.8    46    2.6    52      5.8   812.6    0.00     588    55.5
 273    9:10   60.6    42    1.1   129      3.6   812.5    0.00     609    55.8
 273    9:20   60.4    43    3.5   123      7.6   812.5    0.00     637    56.2
 273    9:30   60.0    43    2.5   110      6.6   812.5    0.00     661    56.5
 273    9:40   61.2    40    2.7   330      4.5   812.5    0.00     685    56.8
 273    9:50   62.1    36    3.3   263      8.0   812.5    0.00     708    57.2
 273   10:00   61.4    36    4.0   237      6.5   812.5    0.00     733    57.6
 273   10:10   62.0    34    3.2   241      9.9   812.3    0.00     754    58.0
 273   10:20   62.6    34    3.6   236      7.5   812.3    0.00     760    58.3
 273   10:30   62.1    35    5.2   266      9.7   812.2    0.00     764    58.7
 273   10:40   61.8    34    4.7   243      9.4   812.1    0.00     797    59.1
 273   10:50   62.4    33    3.6   245      8.1   812.0    0.00     800    59.6
 273   11:00   63.0    32    4.3   247      8.4   811.9    0.00     809    60.1
 273   11:10   63.3    31    2.7   238      6.9   811.9    0.00     808    60.5
 273   11:20   63.4    32    5.2   243     10.3   811.8    0.00     855    61.0
 273   11:30   63.2    33    2.6   325      9.0   811.7    0.00     740    61.5
 273   11:40   63.5    32    4.8   247     14.1   811.5    0.00     838    62.0
 273   11:50   64.3    31    4.8   266      8.9   811.4    0.00     828    62.5
 273   12:00   64.3    30    4.9   292     12.2   811.3    0.00     826    62.9
 273   12:10   64.2    30    4.3   291     10.0   811.3    0.00     820    63.4
 273   12:20   63.8    31    5.1   292      9.3   811.1    0.00     786    63.9
 273   12:30   64.5    31    5.5   247     10.8   811.0    0.00     800    64.2
 273   12:40   64.3    30    3.7   322     10.9   810.9    0.00     796    64.7
 273   12:50   64.4    30    6.5   294     14.3   810.8    0.00     789    65.1
 273   13:00   64.4    30    7.5   312     14.3   810.7    0.00     778    65.4
 273   13:10   64.3    30    3.8   287     10.7   810.6    0.00     759    65.8
 273   13:20   65.3    29    5.4   270     11.6   810.4    0.00     752    66.1
 273   13:30   65.5    28    7.1   276     12.9   810.2    0.00     740    66.4
 273   13:40   65.0    28    4.0   294     13.0   810.2    0.00     715    66.7
 273   13:50   65.7    26    7.0   292     13.4   810.0    0.00     698    67.0
 273   14:00   65.9    26    6.3   282     13.9   810.0    0.00     676    67.2
 273   14:10   65.7    26    4.1   293      8.8   809.9    0.00     654    67.5
 273   14:20   66.5    24    3.5   281     11.0   809.8    0.00     631    67.7
 273   14:30   66.7    23    6.7   294     11.5   809.7    0.00     611    67.9
 273   14:40   67.5    22    4.2   271      9.9   809.6    0.00     570    68.1
 273   14:50   67.9    20    7.1   268     12.6   809.5    0.00     550    68.3
 273   15:00   67.6    20    7.5   289     12.1   809.4    0.00     522    68.4
 273   15:10   67.4    20    4.3   258      9.3   809.4    0.00     487    68.5
 273   15:20   68.0    20    5.7   283     13.7   809.4    0.00     457    68.6
 273   15:30   68.1    20    5.9   304     11.0   809.3    0.00     423    68.6
 273   15:40   67.4    21    7.5   297     12.1   809.3    0.00     389    68.6
 273   15:50   67.4    21    5.8   298     10.4   809.1    0.00     354    68.6
 273   16:00   67.3    22    6.0   300     12.7   809.1    0.00     317    68.6
 273   16:10   67.3    22    6.6   293     12.5   809.1    0.00     284    68.5
 273   16:20   67.1    22    4.3   303      8.4   809.0    0.00     246    68.4
 273   16:30   68.4    21    2.9   277      6.7   808.9    0.00     212    68.2
 273   16:40   67.9    22    5.3   266      9.6   808.9    0.00     178    68.1
 273   16:50   66.8    23    3.8   280      7.2   808.9    0.00     144    67.9
 273   17:00   66.6    23    3.3   267      5.6   808.9    0.00     109    67.7
 273   17:10   66.2    24    5.7   290      9.5   808.9    0.00      72    67.5
 273   17:20   64.8    26    8.0   298     16.1   808.9    0.00      40    67.3
 273   17:30   63.2    29    7.7   310     15.3   808.9    0.00      13    67.1
 273   17:40   62.4    31    8.0   311     13.9   809.0    0.00       5    66.9
 273   17:50   61.8    32    8.3   318     15.3   809.1    0.00       1    66.7
 273   18:00   61.2    33    7.4   316     12.9   809.1    0.00       0    66.5
 273   18:10   60.6    34    7.1   319     12.3   809.1    0.00       0    66.3
 273   18:20   60.1    35    5.9   316     10.1   809.1    0.00       0    66.1
 273   18:30   59.7    35    5.8   307      8.4   809.2    0.00       0    65.9
 273   18:40   59.5    35    6.4   305     10.4   809.3    0.00       0    65.8
 273   18:50   59.2    35    6.4   306     10.4   809.4    0.00       0    65.6
 273   19:00   58.9    35    6.5   306     10.5   809.4    0.00       0    65.4
 273   19:10   58.6    35    7.4   302     11.1   809.5    0.00       0    65.2
 273   19:20   58.4    35    7.3   298     11.8   809.5    0.00       0    65.0
 273   19:30   58.0    36    8.1   299     13.2   809.6    0.00       0    64.8
 273   19:40   57.5    37    7.2   290     10.5   809.6    0.00       0    64.6
 273   19:50   57.1    37    7.5   292     11.5   809.7    0.00       0    64.4
 273   20:00   57.0    38    7.7   289     11.6   809.7    0.00       0    64.3
 273   20:10   57.1    37    8.9   284     13.9   809.7    0.00       0    64.1
 273   20:20   57.0    37   10.1   284     16.2   809.7    0.00       0    63.9
 273   20:30   56.8    37    9.9   280     15.8   809.8    0.00       0    63.8
 273   20:40   56.6    36   10.9   279     17.3   809.8    0.00       0    63.6
 273   20:50   56.3    37   11.5   283     19.9   809.9    0.00       0    63.4
 273   21:00   56.1    37   11.5   282     17.5   810.0    0.00       0    63.3
 273   21:10   55.8    37   12.0   281     18.7   810.0    0.00       0    63.1
 273   21:20   55.6    38   11.1   283     16.9   810.1    0.00       0    63.0
 273   21:30   55.2    40   10.6   288     16.9   810.1    0.00       0    62.8
 273   21:40   54.8    41    9.2   296     14.5   810.1    0.00       0    62.7
 273   21:50   54.5    41   10.3   289     14.8   810.2    0.00       0    62.6
 273   22:00   54.3    42    9.9   291     15.8   810.3    0.00       0    62.4
 273   22:10   54.0    43   10.8   286     16.2   810.3    0.00       0    62.3
 273   22:20   53.4    44    8.5   294     13.0   810.4    0.00       0    62.2
 273   22:30   52.8    46    6.1   300      9.9   810.5    0.00       0    62.1
 273   22:40   52.5    47    5.0   312      7.4   810.5    0.00       0    62.0
 273   22:50   52.2    48    5.2   293      8.1   810.6    0.00       0    61.8
 273   23:00   52.1    48    5.4   284      8.0   810.6    0.00       0    61.7
 273   23:10   51.9    48    5.1   297      8.6   810.6    0.00       0    61.6
 273   23:20   51.6    49    4.6   295      7.2   810.6    0.00       0    61.5
 273   23:30   51.3    49    4.0   298      6.1   810.6    0.00       0    61.4
 273   23:40   51.0    50    3.5   302      5.9   810.6    0.00       0    61.2
 273   23:50   50.8    50    4.2   293      6.2   810.6    0.00       0    61.1
 274    0:00   50.6    49    5.0   290      7.2   810.7    0.00       0    61.0
 274    0:10   50.7    48    7.0   294     10.2   810.7    0.00       0    60.9
 274    0:20   50.6    49    5.8   298      8.8   810.7    0.00       0    60.8
 274    0:30   50.1    50    4.8   301      6.7   810.8    0.00       0    60.7
 274    0:40   49.6    52    4.5   295      6.1   810.9    0.00       0    60.6
 274    0:50   49.3    53    4.9   282      7.2   811.0    0.00       0    60.5
 274    1:00   49.1    55    5.5   275      8.2   811.1    0.00       0    60.4
 274    1:10   48.8    58    7.8   288     10.8   811.1    0.00       0    60.2
 274    1:20   48.6    60    7.4   300     12.3   811.1    0.00       0    60.1
 274    1:30   48.7    61    7.5   302     12.9   811.1    0.00       0    60.0
 274    1:40   48.3    64    8.4   306     15.6   811.2    0.00       0    59.9
 274    1:50   47.6    65    6.6   306     10.2   811.2    0.00       0    59.8
 274    2:00   47.1    66    7.4   304      9.8   811.0    0.00       0    59.6
 274    2:10   46.6    67    7.7   301     13.2   811.0    0.00       0    59.5
 274    2:20   46.4    67    8.3   298     12.3   811.0    0.00       0    59.4
 274    2:30   46.1    68    7.2   287     11.1   811.1    0.00       0    59.3
 274    2:40   45.5    68    6.7   288     10.2   811.2    0.00       0    59.1
 274    2:50   45.2    69    7.8   293     12.4   811.3    0.00       0    59.0
 274    3:00   44.8    70    8.2   295     11.9   811.4    0.00       0    58.9
 274    3:10   44.6    70    8.8   302     14.1   811.5    0.00       0    58.7
 274    3:20   44.6    69    6.7   296     13.2   811.6    0.00       0    58.6
 274    3:30   44.2    70    5.6   280      9.9   811.7    0.00       0    58.5
 274    3:40   43.8    71    5.7   271     11.6   811.8    0.00       0    58.4
 274    3:50   43.1    72    6.4   299     10.3   811.8    0.00       0    58.2
 274    4:00   42.9    71    8.4   306     13.5   811.7    0.00       0    58.1
 274    4:10   42.7    71    8.8   298     13.9   811.9    0.00       0    58.0
 274    4:20   42.3    71    8.5   290     13.3   812.2    0.00       0    57.8
 274    4:30   42.0    71    8.5   292     12.7   812.4    0.00       0    57.7
 274    4:40   41.7    70    8.2   290     12.0   812.5    0.00       0    57.5
 274    4:50   41.6    69    6.9   286      9.6   812.6    0.00       0    57.4
 274    5:00   41.6    68    6.5   287     10.3   812.7    0.00       0    57.2
 274    5:10   41.6    68    5.9   277      8.4   812.9    0.00       0    57.1
 274    5:20   41.7    67    5.3   276      8.6   813.0    0.00       0    57.0
 274    5:30   41.7    67    5.4   284      9.1   813.1    0.00       0    56.8
 274    5:40   41.1    68    4.7   289      6.6   813.3    0.00       1    56.7
 274    5:50   40.8    68    4.3   289      6.1   813.4    0.00       4    56.6
 274    6:00   40.6    68    4.0   292      6.1   813.4    0.00      10    56.4
 274    6:10   40.6    68    3.8   292      6.1   813.5    0.00      23    56.3
 274    6:20   41.7    66    3.8   295      6.0   813.6    0.00      57    56.2
 274    6:30   42.7    63    4.7   297      7.5   813.7    0.00      94    56.1
 274    6:40   43.3    61    5.2   290      9.4   813.8    0.00     131    56.0
 274    6:50   43.2    62    6.5   292     10.2   813.9    0.00     164    55.9
 274    7:00   43.6    62    5.4   290      8.3   813.9    0.00     199    55.8
 274    7:10   44.2    60    5.4   281      8.4   813.9    0.00     233    55.8
 274    7:20   44.6    59    5.6   292      9.3   814.0    0.00     268    55.7
 274    7:30   44.9    56    7.4   296     10.9   814.2    0.00     303    55.7
 274    7:40   45.2    55    7.1   302     11.6   814.3    0.00     339    55.7

Return to Tonopah, Nevada graphs page.


Western Regional Climate Center,wrcc@dri.edu